Flight Track Log - Related Links

Times and Time Zones

All times are in EDT time to prevent confusion due to time zone crossing. See the N100WX flight status page for this flight to view local times or setup timezone preferences in your user account.

Time Position Orientation Groundspeed Altitude Reporting Facility
EDT Latitude Longitude Course Direction KTS MPH feet Rate Location/Type
Mon 13:37:17 42.4667 -71.3167 304° West 168 193 1,000  Level KA90
Mon 13:37:48 42.4833 -71.3500 304° West 175 201 2,100 1,978 Climbing KA90
Mon 13:38:48 42.5167 -71.4000 312° West 224 258 4,000 1,414 Climbing KA90
Mon 13:40:25 42.6014 -71.3458 25° Northeast 247 284 5,800 1,823 Climbing Boston Center
Mon 13:41:26 42.6428 -71.2997 39° Northeast 231 266 8,800 2,410 Climbing Boston Center
Mon 13:42:27 42.7011 -71.2986 North 193 222 10,700 2,033 Climbing Boston Center
Mon 13:43:27 42.7122 -71.3664 283° West 155 178 12,900 2,083 Climbing Boston Center
Mon 13:44:28 42.7233 -71.4567 280° West 196 226 14,900 1,932 Climbing Boston Center
Mon 13:45:25 42.7303 -71.5328 277° West 235 270 16,700 1,831 Climbing Boston Center
Mon 13:46:26 42.7414 -71.6286 279° West 240 276 18,500 1,918 Climbing Boston Center
Mon 13:47:27 42.7544 -71.7219 281° West 240 276 20,600 1,916 Climbing Boston Center
Mon 13:48:25 42.7633 -71.8122 278° West 240 276 22,300 1,754 Climbing Boston Center
Mon 13:49:37 42.7764 -71.9281 279° West 245 282 24,400 1,669 Climbing Boston Center
Mon 13:50:38 42.7872 -72.0269 279° West 257 296 26,000 1,488 Climbing Boston Center
Mon 13:51:38 42.7981 -72.1317 278° West 269 310 27,400 1,438 Climbing Boston Center
Mon 13:52:39 42.8108 -72.2364 279° West 275 316 28,900 1,261 Climbing Boston Center
Mon 13:53:37 42.8256 -72.3325 282° West 281 323 29,900 559 Climbing Boston Center
Mon 13:54:37 42.8403 -72.4486 280° West 295 339 30,000 50 Climbing Boston Center
Mon 13:55:38 42.8525 -72.5731 278° West 319 367 30,000  Level Boston Center
Mon 13:56:39 42.8586 -72.6950 274° West 330 380 30,000  Level Boston Center
Mon 13:57:49 42.8708 -72.8394 277° West 340 391 30,000  Level Boston Center
Mon 13:58:50 42.8908 -73.0153 279° West 373 429 30,000  Level Boston Center
Mon 13:59:51 42.9047 -73.1517 278° West 373 429 30,000  Level Boston Center
Mon 14:00:51 42.9161 -73.2850 277° West 368 423 30,000  Level Boston Center
Mon 14:01:51 42.9275 -73.4211 277° West 368 423 30,000  Level Boston Center
Mon 14:02:50 42.9408 -73.5575 278° West 368 423 30,000  Level Boston Center
Mon 14:03:51 42.9542 -73.6967 278° West 368 423 30,000  Level Boston Center
Mon 14:04:51 42.9672 -73.8333 277° West 368 423 30,000  Level Boston Center
Mon 14:05:50 42.9778 -73.9697 276° West 368 423 30,000  Level Boston Center
Mon 14:06:50 42.9906 -74.1064 277° West 368 423 30,000  Level Boston Center
Mon 14:07:51 43.0050 -74.2431 278° West 368 423 30,000  Level Boston Center
Mon 14:08:51 43.0175 -74.3797 277° West 368 423 30,000  Level Boston Center
Mon 14:09:49 43.0275 -74.5192 276° West 368 423 30,000  Level Boston Center
Mon 14:10:50 43.0394 -74.6589 277° West 368 423 30,000  Level Boston Center
Mon 14:11:50 43.0497 -74.7786 277° West 368 423 30,000  Level Boston Center
Mon 14:12:51 43.0614 -74.9153 277° West 368 423 30,000  Level Boston Center
Mon 14:13:51 43.0708 -75.0522 275° West 368 423 30,000  Level Boston Center
Mon 14:14:51 43.0822 -75.1892 277° West 368 423 30,000  Level Boston Center
Mon 14:15:49 43.0933 -75.3289 276° West 368 423 30,000  Level Boston Center
Mon 14:16:50 43.1064 -75.4661 277° West 368 423 30,000  Level Boston Center
Mon 14:17:50 43.1153 -75.6003 275° West 368 423 30,000  Level Boston Center
Mon 14:18:50 43.1258 -75.7403 276° West 368 423 30,000  Level Boston Center
Mon 14:19:51 43.1364 -75.8747 276° West 368 423 30,000  Level Boston Center
Mon 14:20:51 43.1469 -76.0089 276° West 368 423 30,000  Level Boston Center
Mon 14:22:51 43.1389 -76.2808 268° West 364 419 30,000  Level Cleveland Center
Mon 14:23:51 43.0975 -76.4061 246° West 358 412 30,000  Level Cleveland Center
Mon 14:24:51 43.0583 -76.5308 247° West 358 412 30,000  Level Cleveland Center
Mon 14:25:51 43.0189 -76.6586 247° West 363 418 30,000  Level Cleveland Center
Mon 14:26:51 42.9733 -76.7947 245° Southwest 363 418 30,000  Level Cleveland Center
Mon 14:27:51 42.9317 -76.9222 246° West 363 418 30,000  Level Cleveland Center
Mon 14:28:51 42.8917 -77.0464 246° West 363 418 30,000  Level Cleveland Center
Mon 14:29:51 42.8497 -77.1733 246° West 363 418 30,000  Level Cleveland Center
Mon 14:30:51 42.8075 -77.3003 246° West 363 418 30,000  Level Cleveland Center
Mon 14:31:51 42.7672 -77.4239 246° West 363 418 30,000  Level Cleveland Center
Mon 14:32:51 42.7267 -77.5475 246° West 363 418 30,000  Level Cleveland Center
Mon 14:33:51 42.6900 -77.6594 246° West 363 418 30,000  Level Cleveland Center
Mon 14:34:51 42.6492 -77.7800 245° Southwest 363 418 30,000  Level Cleveland Center
Mon 14:35:51 42.6103 -77.9003 246° West 363 418 30,000  Level Cleveland Center
Mon 14:36:51 42.5692 -78.0175 245° Southwest 358 412 30,000  Level Cleveland Center
Mon 14:37:51 42.5281 -78.1406 246° West 358 412 30,000  Level Cleveland Center
Mon 14:38:51 42.4889 -78.2575 246° West 353 406 30,000  Level Cleveland Center
Mon 14:39:51 42.4475 -78.3742 244° Southwest 353 406 30,000  Level Cleveland Center
Mon 14:40:51 42.4100 -78.4908 247° West 348 400 30,000  Level Cleveland Center
Mon 14:41:51 42.3683 -78.6103 245° Southwest 348 400 30,000  Level Cleveland Center
Mon 14:42:51 42.3264 -78.7267 244° Southwest 348 400 30,000  Level Cleveland Center
Mon 14:43:51 42.2867 -78.8458 246° West 348 400 30,000  Level Cleveland Center
Mon 14:44:51 42.2444 -78.9619 244° Southwest 348 400 30,000  Level Cleveland Center
Mon 14:45:51 42.1983 -79.0922 244° Southwest 348 400 30,000  Level Cleveland Center
Mon 14:46:51 42.1644 -79.2161 250° West 348 400 30,000  Level Cleveland Center
Mon 14:47:51 42.1344 -79.3317 251° West 348 400 30,000  Level Cleveland Center
Mon 14:48:51 42.1044 -79.4525 252° West 348 400 30,000  Level Cleveland Center
Mon 14:49:51 42.0722 -79.5706 250° West 348 400 30,000 -150 Level Cleveland Center
Mon 14:50:51 42.0419 -79.6914 251° West 348 400 29,700 -900 Descending Cleveland Center
Mon 14:51:51 42.0094 -79.8092 250° West 348 400 28,200 -1,650 Descending Cleveland Center
Mon 14:52:51 41.9769 -79.9297 250° West 348 400 26,400 -1,850 Descending Cleveland Center
Mon 14:53:51 41.9461 -80.0444 250° West 348 400 24,500 -1,250 Descending Cleveland Center
Mon 14:54:51 41.9156 -80.1592 250° West 348 400 23,900 -1,300 Descending Cleveland Center
Mon 14:55:51 41.8844 -80.2736 250° West 343 395 21,900 -2,200 Descending Cleveland Center
Mon 14:56:51 41.8722 -80.3881 262° West 321 369 19,500 -2,300 Descending Cleveland Center
Mon 14:57:51 41.8600 -80.4967 261° West 303 349 17,300 -2,250 Descending Cleveland Center
Mon 14:58:51 41.8453 -80.6028 259° West 297 342 15,000 -2,300 Descending Cleveland Center
Mon 14:59:51 41.8328 -80.7086 261° West 297 342 12,700 -2,250 Descending Cleveland Center
Mon 15:00:19 41.8244 -80.7614 258° West 289 333 11,700 -1,800 Descending Cleveland Center
Mon 15:00:51 41.8181 -80.8144 261° West 292 336 10,900 -1,479 Descending Cleveland Center
Mon 15:01:32 41.8094 -80.8811 260° West 267 307 9,900 -1,500 Descending Cleveland Center
Mon 15:01:51 41.8053 -80.9119 260° West 285 328 9,400 -1,574 Descending Cleveland Center
Mon 15:02:33 41.7967 -80.9786 260° West 260 299 8,300 -1,300 Descending Cleveland Center
Mon 15:02:51 41.7944 -80.9953 260° West 274 315 8,100 -1,418 Descending Cleveland Center
Mon 15:03:28 41.7778 -81.0536 249° West 258 297 7,000 -1,500 Descending Cleveland Center
Mon 15:03:51 41.7692 -81.0786 245° Southwest 252 290 6,600 -1,574 Descending Cleveland Center
Mon 15:04:29 41.7439 -81.1425 242° Southwest 251 289 5,400 -1,500 Descending Cleveland Center
Mon 15:04:51 41.7356 -81.1592 236° Southwest 252 290 5,100 -1,500 Descending Cleveland Center
Mon 15:05:29 41.7081 -81.2200 239° Southwest 247 284 3,900 -1,500 Descending Cleveland Center
Mon 15:05:51 41.7017 -81.2394 246° West 252 290 3,600 -885 Descending Cleveland Center
Mon 15:06:30 41.6825 -81.2950 245° Southwest 201 231 3,000 -383 Descending Cleveland Center
Mon 15:07:25 41.6633 -81.3558 247° West 180 207 3,000  Level Cleveland Center
Mon 15:08:26 41.6442 -81.4167 247° West 191 220 3,000 50 Level Cleveland Center
Mon 15:09:26 41.6167 -81.4775 239° Southwest 208 239 3,100  Climbing Cleveland Center
Mon 15:10:27 41.5933 -81.5244 236° Southwest 133 153 3,000 -310 Descending Cleveland Center
Mon 15:11:22 41.5722 -81.5683 237° Southwest 149 171 2,500 -569 Descending Cleveland Center
Mon 15:12:23 41.5531 -81.6069 236° Southwest 118 136 1,900 -595 Descending Cleveland Center
Mon 15:13:23 41.5381 -81.6428 241° Southwest 102 117 1,300 -600 Descending Cleveland Center

Login

Don't have an account? Register now (free) for customized features, flight alerts, and more!